»·PEaware :: N899M KFAT-KSAC

N899M :: KFAT-KSAC

FLIGHT INFORMATION

Flight Status: Arrived
Operator: Privately registered:
United States
More flights under this callsign
Pilot: Robert C. (30425)
Aircraft: Unknown
(EPIC)
More flights by this aircraft type
Origin: KFAT Fresno Yosemite Intl
United States
Destination: KSAC Sacramento Executive
United States
More flights between these airports :: More routes between these airports
Route: HYP LIN
File this flight plan on PilotEdge
Remarks:
Altitude:
(Current/Filed)
6,500ft
Speed:
(Current/Filed)
250kts
Departed: 06-Oct-20 06:57 PM
Arrived: 06-Oct-20 07:31 PM
Distance/Time
Traveled:
134nm/0:34
Distance/Time
To Go:
Arrived

Flight Plot

Page will automatically refresh every two minutes.

Flight plan parsing failed; only flown route is shown


Map Options




Map Legend


Flown Route
Filed Route
Departure Airport
Arrival Airport
Navaid (VOR, NDB)
Fix

Horizontal Profiles

Position Reports

Time Latitude Longitude Heading Altitude Ground
Speed
06-Oct-20 18:24 36.778927 -119.730531 214 336ft 0kts
06-Oct-20 18:24 36.778927 -119.730531 214 336ft 0kts
06-Oct-20 18:26 36.778927 -119.730531 214 336ft 0kts
06-Oct-20 18:27 36.778927 -119.730531 214 336ft 0kts
06-Oct-20 18:27 36.778927 -119.730531 214 336ft 0kts
06-Oct-20 18:29 36.778927 -119.730531 214 336ft 0kts
06-Oct-20 18:29 36.778927 -119.730531 214 336ft 0kts
06-Oct-20 18:30 36.778927 -119.730531 214 336ft 0kts
06-Oct-20 18:32 36.778927 -119.730531 214 336ft 0kts
06-Oct-20 18:33 36.778927 -119.730531 214 336ft 0kts
06-Oct-20 18:33 36.778927 -119.730531 214 336ft 0kts
06-Oct-20 18:34 36.778927 -119.730531 214 336ft 0kts
06-Oct-20 18:35 36.778927 -119.730531 214 336ft 0kts
06-Oct-20 18:36 36.778927 -119.730531 214 336ft 0kts
06-Oct-20 18:37 36.778927 -119.730531 214 336ft 0kts
06-Oct-20 18:38 36.778927 -119.730531 214 336ft 0kts
06-Oct-20 18:39 36.778927 -119.730531 214 336ft 0kts
06-Oct-20 18:40 36.778927 -119.730531 214 336ft 0kts
06-Oct-20 18:41 36.778927 -119.730531 214 336ft 0kts
06-Oct-20 18:42 36.778927 -119.730531 214 336ft 0kts
06-Oct-20 18:43 36.778927 -119.730531 214 336ft 0kts
06-Oct-20 18:44 36.778927 -119.730531 214 336ft 0kts
06-Oct-20 18:45 36.778927 -119.730531 214 336ft 0kts
06-Oct-20 18:46 36.778927 -119.730531 214 336ft 0kts
06-Oct-20 18:47 36.778874 -119.730564 193 336ft 2kts
06-Oct-20 18:48 36.778633 -119.729769 83 336ft 3kts
06-Oct-20 18:49 36.778931 -119.729374 31 336ft 5kts
06-Oct-20 18:50 36.777556 -119.725315 124 336ft 21kts
06-Oct-20 18:51 36.773502 -119.718193 127 336ft 27kts
06-Oct-20 18:52 36.770244 -119.712447 120 336ft 0kts
06-Oct-20 18:53 36.769767 -119.710898 33 336ft 0kts
06-Oct-20 18:54 36.769767 -119.710898 33 336ft 0kts
06-Oct-20 18:55 36.769888 -119.710803 30 336ft 6kts
06-Oct-20 18:56 36.782925 -119.731680 308 826ft 162kts
06-Oct-20 18:57 36.821400 -119.792015 306 1681ft 258kts
06-Oct-20 18:58 36.866971 -119.868468 304 2407ft 284kts
06-Oct-20 18:59 36.912888 -119.950486 303 3114ft 289kts
06-Oct-20 19:00 36.960966 -120.026949 307 4197ft 273kts
06-Oct-20 19:01 37.009516 -120.099402 309 5292ft 271kts
06-Oct-20 19:02 37.060563 -120.169390 311 6392ft 273kts
06-Oct-20 19:03 37.115113 -120.242626 311 6501ft 297kts
06-Oct-20 19:04 37.167488 -120.321160 307 6492ft 287kts
06-Oct-20 19:05 37.216290 -120.398508 308 6490ft 280kts
06-Oct-20 19:06 37.279976 -120.454344 328 6489ft 280kts
06-Oct-20 19:07 37.346728 -120.504546 328 6493ft 279kts
06-Oct-20 19:08 37.413080 -120.554856 328 6488ft 277kts
06-Oct-20 19:09 37.479178 -120.604228 329 6488ft 276kts
06-Oct-20 19:10 37.544671 -120.655073 329 6597ft 271kts
06-Oct-20 19:11 37.615816 -120.689975 337 6477ft 277kts
06-Oct-20 19:12 37.684949 -120.732207 331 6472ft 276kts
06-Oct-20 19:13 37.752527 -120.778659 330 6487ft 276kts
06-Oct-20 19:14 37.819851 -120.825562 330 6492ft 276kts
06-Oct-20 19:15 37.887019 -120.872520 330 6494ft 276kts
06-Oct-20 19:16 37.954443 -120.919741 329 6501ft 277kts
06-Oct-20 19:17 38.022183 -120.967281 329 6500ft 278kts
06-Oct-20 19:18 38.089393 -121.018027 319 6201ft 286kts
06-Oct-20 19:19 38.147638 -121.076357 320 5566ft 239kts
06-Oct-20 19:20 38.196183 -121.124744 321 4930ft 209kts
06-Oct-20 19:21 38.240216 -121.168702 322 4349ft 196kts
06-Oct-20 19:22 38.283059 -121.211472 321 3848ft 195kts
06-Oct-20 19:23 38.325656 -121.254101 321 3349ft 194kts
06-Oct-20 19:24 38.367944 -121.296490 321 2957ft 189kts
06-Oct-20 19:25 38.408493 -121.337198 321 2747ft 183kts
06-Oct-20 19:26 38.441090 -121.382969 305 2461ft 169kts
06-Oct-20 19:27 38.471250 -121.431958 314 1417ft 172kts
06-Oct-20 19:28 38.500373 -121.470967 313 495ft 113kts
06-Oct-20 19:29 38.516978 -121.493295 314 23ft 56kts
06-Oct-20 19:30 38.518273 -121.494923 312 23ft 0kts
06-Oct-20 19:31 38.518338 -121.493869 3 23ft 16kts
06-Oct-20 19:32 38.519716 -121.492708 240 24ft 1kts
06-Oct-20 19:33 38.519712 -121.492717 239 24ft 0kts
06-Oct-20 19:38 38.519685 -121.493127 307 24ft 0kts
06-Oct-20 19:39 38.519685 -121.493127 307 24ft 0kts
06-Oct-20 19:40 38.519685 -121.493127 307 24ft 0kts

Navigation Log

Ident Type
Flight plan parsing failed, navigation log unavailable